sensor_id;sensor_type;location;lat;lon;timestamp;pressure;altitude;pressure_sealevel;temperature;humidity
48015;BME280;33780;51.034;7.120;2023-03-13T00:01:24;99773.31;;;9.81;72.85
48015;BME280;33780;51.034;7.120;2023-03-13T00:03:50;99766.00;;;9.83;72.74
48015;BME280;33780;51.034;7.120;2023-03-13T00:06:15;99766.69;;;9.85;72.90
48015;BME280;33780;51.034;7.120;2023-03-13T00:08:41;99754.88;;;9.88;72.97
48015;BME280;33780;51.034;7.120;2023-03-13T00:11:09;99751.06;;;9.90;72.96
48015;BME280;33780;51.034;7.120;2023-03-13T00:13:35;99744.56;;;9.93;73.20
48015;BME280;33780;51.034;7.120;2023-03-13T00:16:04;99735.41;;;9.95;73.35
48015;BME280;33780;51.034;7.120;2023-03-13T00:18:30;99731.56;;;9.98;72.99
48015;BME280;33780;51.034;7.120;2023-03-13T00:20:59;99713.38;;;10.02;73.06
48015;BME280;33780;51.034;7.120;2023-03-13T00:23:25;99707.72;;;10.05;73.26
48015;BME280;33780;51.034;7.120;2023-03-13T00:26:04;99693.25;;;10.07;73.34
48015;BME280;33780;51.034;7.120;2023-03-13T00:28:31;99688.44;;;10.11;73.64
48015;BME280;33780;51.034;7.120;2023-03-13T00:31:04;99679.94;;;10.15;73.76
48015;BME280;33780;51.034;7.120;2023-03-13T00:33:31;99679.63;;;10.18;73.90
48015;BME280;33780;51.034;7.120;2023-03-13T00:35:59;99664.13;;;10.22;73.80
48015;BME280;33780;51.034;7.120;2023-03-13T00:38:24;99659.50;;;10.24;73.38
48015;BME280;33780;51.034;7.120;2023-03-13T00:40:57;99653.84;;;10.27;73.49
48015;BME280;33780;51.034;7.120;2023-03-13T00:43:23;99654.53;;;10.29;73.66
48015;BME280;33780;51.034;7.120;2023-03-13T00:45:48;99649.84;;;10.31;73.53
48015;BME280;33780;51.034;7.120;2023-03-13T00:48:13;99652.38;;;10.33;73.84
48015;BME280;33780;51.034;7.120;2023-03-13T00:50:38;99640.50;;;10.35;73.87
48015;BME280;33780;51.034;7.120;2023-03-13T00:53:04;99635.16;;;10.35;73.81
48015;BME280;33780;51.034;7.120;2023-03-13T00:55:29;99632.31;;;10.37;74.06
48015;BME280;33780;51.034;7.120;2023-03-13T00:57:54;99627.66;;;10.39;73.90
48015;BME280;33780;51.034;7.120;2023-03-13T01:00:20;99625.81;;;10.39;73.97
48015;BME280;33780;51.034;7.120;2023-03-13T01:02:45;99626.66;;;10.40;74.27
48015;BME280;33780;51.034;7.120;2023-03-13T01:05:10;99624.81;;;10.40;73.98
48015;BME280;33780;51.034;7.120;2023-03-13T01:07:37;99627.50;;;10.40;74.31
48015;BME280;33780;51.034;7.120;2023-03-13T01:10:03;99616.97;;;10.39;74.33
48015;BME280;33780;51.034;7.120;2023-03-13T01:12:28;99615.13;;;10.39;74.12
48015;BME280;33780;51.034;7.120;2023-03-13T01:14:53;99618.63;;;10.40;74.48
48015;BME280;33780;51.034;7.120;2023-03-13T01:17:19;99605.25;;;10.40;74.70
48015;BME280;33780;51.034;7.120;2023-03-13T01:19:44;99595.56;;;10.39;74.79
48015;BME280;33780;51.034;7.120;2023-03-13T01:22:09;99601.75;;;10.39;74.74
48015;BME280;33780;51.034;7.120;2023-03-13T01:24:36;99591.06;;;10.39;75.14
48015;BME280;33780;51.034;7.120;2023-03-13T01:27:02;99595.56;;;10.39;74.89
48015;BME280;33780;51.034;7.120;2023-03-13T01:29:27;99592.91;;;10.39;75.20
48015;BME280;33780;51.034;7.120;2023-03-13T01:31:52;99585.88;;;10.38;75.45
48015;BME280;33780;51.034;7.120;2023-03-13T01:34:18;99582.34;;;10.37;75.28
48015;BME280;33780;51.034;7.120;2023-03-13T01:36:43;99578.84;;;10.37;75.59
48015;BME280;33780;51.034;7.120;2023-03-13T01:39:09;99566.47;;;10.36;75.74
48015;BME280;33780;51.034;7.120;2023-03-13T01:41:36;99559.28;;;10.36;75.95
48015;BME280;33780;51.034;7.120;2023-03-13T01:44:01;99558.44;;;10.36;75.85
48015;BME280;33780;51.034;7.120;2023-03-13T01:46:28;99547.75;;;10.36;75.81
48015;BME280;33780;51.034;7.120;2023-03-13T01:49:17;99543.25;;;10.36;76.10
48015;BME280;33780;51.034;7.120;2023-03-13T01:51:45;99540.56;;;10.36;76.39
48015;BME280;33780;51.034;7.120;2023-03-13T01:56:52;99522.69;;;10.37;76.69
48015;BME280;33780;51.034;7.120;2023-03-13T01:59:22;99524.53;;;10.36;76.46
48015;BME280;33780;51.034;7.120;2023-03-13T02:01:50;99513.81;;;10.36;76.84
48015;BME280;33780;51.034;7.120;2023-03-13T02:04:17;99503.97;;;10.37;77.26
48015;BME280;33780;51.034;7.120;2023-03-13T02:06:46;99500.28;;;10.38;77.03
48015;BME280;33780;51.034;7.120;2023-03-13T02:09:17;99495.78;;;10.38;77.24
48015;BME280;33780;51.034;7.120;2023-03-13T02:11:57;99482.41;;;10.38;77.14
48015;BME280;33780;51.034;7.120;2023-03-13T02:14:27;99476.88;;;10.40;77.30
48015;BME280;33780;51.034;7.120;2023-03-13T02:16:54;99467.88;;;10.41;77.33
48015;BME280;33780;51.034;7.120;2023-03-13T02:19:41;99470.53;;;10.41;77.24
48015;BME280;33780;51.034;7.120;2023-03-13T02:22:28;99462.53;;;10.41;77.47
48015;BME280;33780;51.034;7.120;2023-03-13T02:27:56;99441.13;;;10.41;77.51
48015;BME280;33780;51.034;7.120;2023-03-13T02:30:23;99442.00;;;10.41;77.94
48015;BME280;33780;51.034;7.120;2023-03-13T02:32:49;99436.66;;;10.41;78.02
48015;BME280;33780;51.034;7.120;2023-03-13T02:35:17;99431.13;;;10.43;78.16
48015;BME280;33780;51.034;7.120;2023-03-13T02:37:46;99432.63;;;10.45;77.94
48015;BME280;33780;51.034;7.120;2023-03-13T02:40:17;99435.16;;;10.47;78.11
48015;BME280;33780;51.034;7.120;2023-03-13T02:42:46;99425.28;;;10.47;78.34
48015;BME280;33780;51.034;7.120;2023-03-13T02:45:14;99433.97;;;10.49;78.19
48015;BME280;33780;51.034;7.120;2023-03-13T02:47:39;99430.47;;;10.49;78.66
48015;BME280;33780;51.034;7.120;2023-03-13T02:50:05;99432.97;;;10.50;78.80
48015;BME280;33780;51.034;7.120;2023-03-13T02:52:37;99433.81;;;10.51;78.76
48015;BME280;33780;51.034;7.120;2023-03-13T02:55:08;99421.28;;;10.51;79.20
48015;BME280;33780;51.034;7.120;2023-03-13T02:57:35;99422.28;;;10.50;79.18
48015;BME280;33780;51.034;7.120;2023-03-13T03:00:00;99425.78;;;10.51;79.56
48015;BME280;33780;51.034;7.120;2023-03-13T03:02:26;99427.63;;;10.50;79.07
48015;BME280;33780;51.034;7.120;2023-03-13T03:04:51;99424.78;;;10.52;79.62
48015;BME280;33780;51.034;7.120;2023-03-13T03:07:17;99417.59;;;10.52;79.63
48015;BME280;33780;51.034;7.120;2023-03-13T03:09:42;99412.25;;;10.52;79.75
48015;BME280;33780;51.034;7.120;2023-03-13T03:12:07;99405.22;;;10.51;79.93
48015;BME280;33780;51.034;7.120;2023-03-13T03:14:33;99401.56;;;10.52;79.87
48015;BME280;33780;51.034;7.120;2023-03-13T03:16:58;99398.03;;;10.52;80.35
48015;BME280;33780;51.034;7.120;2023-03-13T03:19:23;99391.69;;;10.53;80.65
48015;BME280;33780;51.034;7.120;2023-03-13T03:21:49;99382.81;;;10.52;80.68
48015;BME280;33780;51.034;7.120;2023-03-13T03:24:14;99386.34;;;10.53;80.35
48015;BME280;33780;51.034;7.120;2023-03-13T03:26:40;99389.00;;;10.53;80.62
48015;BME280;33780;51.034;7.120;2023-03-13T03:29:05;99366.63;;;10.54;80.90
48015;BME280;33780;51.034;7.120;2023-03-13T03:31:32;99376.31;;;10.55;80.75
48015;BME280;33780;51.034;7.120;2023-03-13T03:33:57;99376.31;;;10.55;81.01
48015;BME280;33780;51.034;7.120;2023-03-13T03:36:23;99380.66;;;10.56;81.17
48015;BME280;33780;51.034;7.120;2023-03-13T03:38:48;99378.81;;;10.56;81.30
48015;BME280;33780;51.034;7.120;2023-03-13T03:41:14;99384.84;;;10.58;81.62
48015;BME280;33780;51.034;7.120;2023-03-13T03:43:40;99378.66;;;10.58;82.01
48015;BME280;33780;51.034;7.120;2023-03-13T03:46:06;99376.81;;;10.58;81.82
48015;BME280;33780;51.034;7.120;2023-03-13T03:48:31;99370.63;;;10.58;82.08
48015;BME280;33780;51.034;7.120;2023-03-13T03:50:57;99355.28;;;10.60;82.21
48015;BME280;33780;51.034;7.120;2023-03-13T03:53:22;99361.47;;;10.61;82.12
48015;BME280;33780;51.034;7.120;2023-03-13T03:55:48;99349.75;;;10.62;82.15
48015;BME280;33780;51.034;7.120;2023-03-13T03:58:14;99348.75;;;10.63;82.16
48015;BME280;33780;51.034;7.120;2023-03-13T04:00:42;99338.06;;;10.63;82.22
48015;BME280;33780;51.034;7.120;2023-03-13T04:03:08;99351.25;;;10.64;82.67
48015;BME280;33780;51.034;7.120;2023-03-13T04:05:33;99348.41;;;10.66;82.40
48015;BME280;33780;51.034;7.120;2023-03-13T04:07:58;99344.72;;;10.67;82.36
48015;BME280;33780;51.034;7.120;2023-03-13T04:10:24;99337.38;;;10.69;82.66
48015;BME280;33780;51.034;7.120;2023-03-13T04:12:49;99329.34;;;10.69;82.65
48015;BME280;33780;51.034;7.120;2023-03-13T04:15:14;99335.38;;;10.71;82.78
48015;BME280;33780;51.034;7.120;2023-03-13T04:17:40;99345.91;;;10.72;82.82
48015;BME280;33780;51.034;7.120;2023-03-13T04:20:05;99339.38;;;10.75;83.02
48015;BME280;33780;51.034;7.120;2023-03-13T04:22:32;99338.22;;;10.77;83.21
48015;BME280;33780;51.034;7.120;2023-03-13T04:24:58;99325.69;;;10.78;83.04
48015;BME280;33780;51.034;7.120;2023-03-13T04:27:24;99329.88;;;10.80;83.18
48015;BME280;33780;51.034;7.120;2023-03-13T04:29:49;99321.00;;;10.80;83.11
48015;BME280;33780;51.034;7.120;2023-03-13T04:32:14;99304.78;;;10.81;83.22
48015;BME280;33780;51.034;7.120;2023-03-13T04:34:39;99313.47;;;10.83;82.97
48015;BME280;33780;51.034;7.120;2023-03-13T04:37:05;99306.94;;;10.86;82.93
48015;BME280;33780;51.034;7.120;2023-03-13T04:39:30;99309.44;;;10.87;83.26
48015;BME280;33780;51.034;7.120;2023-03-13T04:41:55;99310.28;;;10.88;82.95
48015;BME280;33780;51.034;7.120;2023-03-13T04:44:21;99304.75;;;10.89;83.08
48015;BME280;33780;51.034;7.120;2023-03-13T04:46:47;99297.56;;;10.90;82.93
48015;BME280;33780;51.034;7.120;2023-03-13T04:49:13;99296.38;;;10.93;82.92
48015;BME280;33780;51.034;7.120;2023-03-13T04:51:40;99302.56;;;10.93;82.77
48015;BME280;33780;51.034;7.120;2023-03-13T04:54:06;99298.06;;;10.94;83.36
48015;BME280;33780;51.034;7.120;2023-03-13T04:56:31;99298.88;;;10.94;82.92
48015;BME280;33780;51.034;7.120;2023-03-13T04:58:57;99296.91;;;10.96;82.94
48015;BME280;33780;51.034;7.120;2023-03-13T05:01:22;99294.22;;;10.96;83.04
48015;BME280;33780;51.034;7.120;2023-03-13T05:03:47;99290.53;;;10.97;83.11
48015;BME280;33780;51.034;7.120;2023-03-13T05:06:12;99280.50;;;10.99;83.48
48015;BME280;33780;51.034;7.120;2023-03-13T05:08:38;99287.53;;;11.00;83.46
48015;BME280;33780;51.034;7.120;2023-03-13T05:11:03;99282.00;;;11.02;83.51
48015;BME280;33780;51.034;7.120;2023-03-13T05:13:29;99278.31;;;11.03;83.77
48015;BME280;33780;51.034;7.120;2023-03-13T05:15:54;99283.50;;;11.04;83.68
48015;BME280;33780;51.034;7.120;2023-03-13T05:18:20;99282.50;;;11.05;83.59
48015;BME280;33780;51.034;7.120;2023-03-13T05:20:45;99272.63;;;11.06;83.62
48015;BME280;33780;51.034;7.120;2023-03-13T05:23:10;99270.59;;;11.08;83.63
48015;BME280;33780;51.034;7.120;2023-03-13T05:25:35;99267.91;;;11.08;83.65
48015;BME280;33780;51.034;7.120;2023-03-13T05:28:01;99280.31;;;11.09;83.86
48015;BME280;33780;51.034;7.120;2023-03-13T05:30:26;99269.41;;;11.10;83.48
48015;BME280;33780;51.034;7.120;2023-03-13T05:32:52;99255.03;;;11.11;83.40
48015;BME280;33780;51.034;7.120;2023-03-13T05:35:17;99264.72;;;11.12;83.82
48015;BME280;33780;51.034;7.120;2023-03-13T05:37:43;99268.25;;;11.13;83.58
48015;BME280;33780;51.034;7.120;2023-03-13T05:40:10;99267.25;;;11.14;83.44
48015;BME280;33780;51.034;7.120;2023-03-13T05:42:36;99267.25;;;11.14;83.80
48015;BME280;33780;51.034;7.120;2023-03-13T05:45:01;99268.94;;;11.15;83.57
48015;BME280;33780;51.034;7.120;2023-03-13T05:47:26;99271.44;;;11.16;83.78
48015;BME280;33780;51.034;7.120;2023-03-13T05:49:51;99261.56;;;11.17;83.62
48015;BME280;33780;51.034;7.120;2023-03-13T05:52:17;99253.53;;;11.17;83.81
48015;BME280;33780;51.034;7.120;2023-03-13T05:54:42;99241.81;;;11.18;83.52
48015;BME280;33780;51.034;7.120;2023-03-13T05:57:07;99225.56;;;11.19;84.06
48015;BME280;33780;51.034;7.120;2023-03-13T05:59:33;99232.59;;;11.20;83.78
48015;BME280;33780;51.034;7.120;2023-03-13T06:01:58;99232.59;;;11.20;83.90
48015;BME280;33780;51.034;7.120;2023-03-13T06:04:23;99250.16;;;11.23;83.97
48015;BME280;33780;51.034;7.120;2023-03-13T06:06:49;99248.13;;;11.25;83.99
48015;BME280;33780;51.034;7.120;2023-03-13T06:09:14;99266.69;;;11.27;84.09
48015;BME280;33780;51.034;7.120;2023-03-13T06:11:47;99258.50;;;11.28;84.26
48015;BME280;33780;51.034;7.120;2023-03-13T06:14:13;99256.47;;;11.30;84.03
48015;BME280;33780;51.034;7.120;2023-03-13T06:16:38;99248.28;;;11.32;84.40
48015;BME280;33780;51.034;7.120;2023-03-13T06:19:04;99260.50;;;11.34;84.20
48015;BME280;33780;51.034;7.120;2023-03-13T06:21:36;99269.19;;;11.36;84.45
48015;BME280;33780;51.034;7.120;2023-03-13T06:24:02;99263.50;;;11.39;84.47
48015;BME280;33780;51.034;7.120;2023-03-13T06:26:52;99265.81;;;11.42;84.65
48015;BME280;33780;51.034;7.120;2023-03-13T06:29:17;99268.97;;;11.46;85.06
48015;BME280;33780;51.034;7.120;2023-03-13T06:31:42;99270.47;;;11.48;84.61
48015;BME280;33780;51.034;7.120;2023-03-13T06:34:13;99269.31;;;11.51;84.58
48015;BME280;33780;51.034;7.120;2023-03-13T06:36:39;99264.63;;;11.53;85.10
48015;BME280;33780;51.034;7.120;2023-03-13T06:39:24;99270.47;;;11.57;84.59
48015;BME280;33780;51.034;7.120;2023-03-13T06:41:56;99277.31;;;11.59;84.97
48015;BME280;33780;51.034;7.120;2023-03-13T06:44:21;99275.94;;;11.63;84.94
48015;BME280;33780;51.034;7.120;2023-03-13T06:46:47;99275.59;;;11.66;85.22
48015;BME280;33780;51.034;7.120;2023-03-13T06:49:22;99274.44;;;11.69;85.20
48015;BME280;33780;51.034;7.120;2023-03-13T06:51:48;99278.25;;;11.74;85.09
48015;BME280;33780;51.034;7.120;2023-03-13T06:54:13;99266.19;;;11.78;85.30
48015;BME280;33780;51.034;7.120;2023-03-13T06:56:45;99275.56;;;11.83;85.44
48015;BME280;33780;51.034;7.120;2023-03-13T06:59:10;99286.94;;;11.85;85.18
48015;BME280;33780;51.034;7.120;2023-03-13T07:01:44;99283.94;;;11.88;85.23
48015;BME280;33780;51.034;7.120;2023-03-13T07:04:11;99293.47;;;11.90;85.52
48015;BME280;33780;51.034;7.120;2023-03-13T07:06:49;99296.81;;;11.92;85.66
48015;BME280;33780;51.034;7.120;2023-03-13T07:09:15;99283.03;;;11.95;85.41
48015;BME280;33780;51.034;7.120;2023-03-13T07:11:46;99285.38;;;11.98;85.39
48015;BME280;33780;51.034;7.120;2023-03-13T07:14:11;99291.19;;;12.02;84.85
48015;BME280;33780;51.034;7.120;2023-03-13T07:16:37;99293.06;;;12.01;85.18
48015;BME280;33780;51.034;7.120;2023-03-13T07:19:02;99290.88;;;12.05;85.19
48015;BME280;33780;51.034;7.120;2023-03-13T07:21:27;99299.56;;;12.07;85.02
48015;BME280;33780;51.034;7.120;2023-03-13T07:23:55;99284.16;;;12.09;85.11
48015;BME280;33780;51.034;7.120;2023-03-13T07:26:21;99286.47;;;12.12;85.23
48015;BME280;33780;51.034;7.120;2023-03-13T07:28:46;99298.88;;;12.13;85.01
48015;BME280;33780;51.034;7.120;2023-03-13T07:31:19;99300.16;;;12.17;84.53
48015;BME280;33780;51.034;7.120;2023-03-13T07:33:45;99306.19;;;12.19;84.93
48015;BME280;33780;51.034;7.120;2023-03-13T07:36:11;99296.16;;;12.21;85.24
48015;BME280;33780;51.034;7.120;2023-03-13T07:38:37;99293.28;;;12.23;85.06
48015;BME280;33780;51.034;7.120;2023-03-13T07:41:05;99290.44;;;12.24;84.88
48015;BME280;33780;51.034;7.120;2023-03-13T07:43:31;99298.13;;;12.27;84.65
48015;BME280;33780;51.034;7.120;2023-03-13T07:46:02;99300.44;;;12.30;84.69
48015;BME280;33780;51.034;7.120;2023-03-13T07:48:30;99282.31;;;12.32;84.64
48015;BME280;33780;51.034;7.120;2023-03-13T07:50:56;99266.69;;;12.36;84.16
48015;BME280;33780;51.034;7.120;2023-03-13T07:53:22;99267.00;;;12.41;84.15
48015;BME280;33780;51.034;7.120;2023-03-13T07:56:09;99266.81;;;12.43;84.59
48015;BME280;33780;51.034;7.120;2023-03-13T07:58:36;99262.75;;;12.47;84.34
48015;BME280;33780;51.034;7.120;2023-03-13T08:03:37;99245.28;;;12.51;84.02
48015;BME280;33780;51.034;7.120;2023-03-13T08:06:05;99249.63;;;12.52;83.73
48015;BME280;33780;51.034;7.120;2023-03-13T08:08:31;99241.22;;;12.55;84.00
48015;BME280;33780;51.034;7.120;2023-03-13T08:11:05;99245.41;;;12.57;83.61
48015;BME280;33780;51.034;7.120;2023-03-13T08:13:31;99255.13;;;12.58;83.23
48015;BME280;33780;51.034;7.120;2023-03-13T08:16:15;99251.44;;;12.59;83.20
48015;BME280;33780;51.034;7.120;2023-03-13T08:18:45;99235.97;;;12.61;82.77
48015;BME280;33780;51.034;7.120;2023-03-13T08:21:19;99246.72;;;12.61;82.77
48015;BME280;33780;51.034;7.120;2023-03-13T08:23:55;99236.63;;;12.63;82.35
48015;BME280;33780;51.034;7.120;2023-03-13T08:26:23;99235.59;;;12.64;82.24
48015;BME280;33780;51.034;7.120;2023-03-13T08:28:55;99238.75;;;12.68;81.88
48015;BME280;33780;51.034;7.120;2023-03-13T08:31:23;99235.88;;;12.69;81.94
48015;BME280;33780;51.034;7.120;2023-03-13T08:33:49;99236.53;;;12.71;81.46
48015;BME280;33780;51.034;7.120;2023-03-13T08:36:15;99235.53;;;12.73;81.31
48015;BME280;33780;51.034;7.120;2023-03-13T08:38:42;99236.16;;;12.75;81.27
48015;BME280;33780;51.034;7.120;2023-03-13T08:41:15;99241.38;;;12.76;81.12
48015;BME280;33780;51.034;7.120;2023-03-13T08:43:44;99235.19;;;12.76;80.87
48015;BME280;33780;51.034;7.120;2023-03-13T08:46:10;99243.88;;;12.78;80.65
48015;BME280;33780;51.034;7.120;2023-03-13T08:48:38;99239.16;;;12.80;80.55
48015;BME280;33780;51.034;7.120;2023-03-13T08:53:29;99250.75;;;12.80;80.70
48015;BME280;33780;51.034;7.120;2023-03-13T08:55:55;99255.09;;;12.81;80.74
48015;BME280;33780;51.034;7.120;2023-03-13T08:58:23;99253.25;;;12.82;81.28
48015;BME280;33780;51.034;7.120;2023-03-13T09:00:49;99251.38;;;12.82;81.01
48015;BME280;33780;51.034;7.120;2023-03-13T09:03:14;99240.66;;;12.82;80.83
48015;BME280;33780;51.034;7.120;2023-03-13T09:05:39;99249.53;;;12.83;80.78
48015;BME280;33780;51.034;7.120;2023-03-13T09:08:05;99246.66;;;12.84;81.12
48015;BME280;33780;51.034;7.120;2023-03-13T09:10:34;99243.97;;;12.84;80.73
48015;BME280;33780;51.034;7.120;2023-03-13T09:13:00;99253.06;;;12.83;81.05
48015;BME280;33780;51.034;7.120;2023-03-13T09:15:26;99243.97;;;12.84;81.11
48015;BME280;33780;51.034;7.120;2023-03-13T09:17:51;99239.44;;;12.85;81.06
48015;BME280;33780;51.034;7.120;2023-03-13T09:20:16;99239.44;;;12.85;80.88
48015;BME280;33780;51.034;7.120;2023-03-13T09:22:43;99230.38;;;12.86;81.33
48015;BME280;33780;51.034;7.120;2023-03-13T09:25:09;99232.22;;;12.85;81.10
48015;BME280;33780;51.034;7.120;2023-03-13T09:27:34;99223.97;;;12.87;81.24
48015;BME280;33780;51.034;7.120;2023-03-13T09:30:00;99228.34;;;12.88;81.03
48015;BME280;33780;51.034;7.120;2023-03-13T09:32:25;99230.66;;;12.91;81.01
48015;BME280;33780;51.034;7.120;2023-03-13T09:34:50;99224.25;;;12.92;80.87
48015;BME280;33780;51.034;7.120;2023-03-13T09:37:15;99224.09;;;12.93;81.09
48015;BME280;33780;51.034;7.120;2023-03-13T09:39:41;99216.06;;;12.93;81.13
48015;BME280;33780;51.034;7.120;2023-03-13T09:42:49;99224.75;;;12.95;80.53
48015;BME280;33780;51.034;7.120;2023-03-13T09:45:17;99215.69;;;12.96;80.82
48015;BME280;33780;51.034;7.120;2023-03-13T09:47:49;99209.94;;;12.99;80.81
48015;BME280;33780;51.034;7.120;2023-03-13T09:50:24;99205.03;;;13.03;81.11
48015;BME280;33780;51.034;7.120;2023-03-13T09:52:58;99203.81;;;13.06;81.24
48015;BME280;33780;51.034;7.120;2023-03-13T09:55:34;99206.94;;;13.09;81.16
48015;BME280;33780;51.034;7.120;2023-03-13T09:58:23;99215.50;;;13.13;81.00
48015;BME280;33780;51.034;7.120;2023-03-13T10:00:54;99199.00;;;13.16;80.81
48015;BME280;33780;51.034;7.120;2023-03-13T10:03:29;99208.38;;;13.20;80.89
48015;BME280;33780;51.034;7.120;2023-03-13T10:06:05;99204.13;;;13.25;80.70
48015;BME280;33780;51.034;7.120;2023-03-13T10:08:35;99219.03;;;13.28;80.67
48015;BME280;33780;51.034;7.120;2023-03-13T10:11:10;99211.44;;;13.32;80.54
48015;BME280;33780;51.034;7.120;2023-03-13T10:16:17;99195.03;;;13.41;80.76
48015;BME280;33780;51.034;7.120;2023-03-13T10:18:48;99199.84;;;13.46;80.55
48015;BME280;33780;51.034;7.120;2023-03-13T10:21:20;99204.03;;;13.48;80.75
48015;BME280;33780;51.034;7.120;2023-03-13T10:24:01;99195.38;;;13.53;80.72
48015;BME280;33780;51.034;7.120;2023-03-13T10:26:31;99187.78;;;13.56;80.44
48015;BME280;33780;51.034;7.120;2023-03-13T10:29:01;99177.28;;;13.61;80.55
48015;BME280;33780;51.034;7.120;2023-03-13T10:31:38;99175.34;;;13.70;80.42
48015;BME280;33780;51.034;7.120;2023-03-13T10:34:11;99167.13;;;13.78;80.32
48015;BME280;33780;51.034;7.120;2023-03-13T10:36:46;99163.50;;;13.86;80.55
48015;BME280;33780;51.034;7.120;2023-03-13T10:39:16;99161.91;;;13.91;80.39
48015;BME280;33780;51.034;7.120;2023-03-13T10:41:42;99150.75;;;13.95;80.21
48015;BME280;33780;51.034;7.120;2023-03-13T10:44:19;99157.81;;;13.96;80.25
48015;BME280;33780;51.034;7.120;2023-03-13T10:46:47;99146.84;;;13.97;80.29
48015;BME280;33780;51.034;7.120;2023-03-13T10:49:21;99152.88;;;13.99;80.12
48015;BME280;33780;51.034;7.120;2023-03-13T10:51:48;99131.81;;;14.03;79.92
48015;BME280;33780;51.034;7.120;2023-03-13T10:54:25;99132.44;;;14.05;79.69
48015;BME280;33780;51.034;7.120;2023-03-13T10:57:06;99144.03;;;14.05;79.67
48015;BME280;33780;51.034;7.120;2023-03-13T10:59:31;99148.22;;;14.08;79.60
48015;BME280;33780;51.034;7.120;2023-03-13T11:01:59;99137.50;;;14.14;79.49
48015;BME280;33780;51.034;7.120;2023-03-13T11:04:38;99134.03;;;14.20;79.13
48015;BME280;33780;51.034;7.120;2023-03-13T11:10:00;99114.03;;;14.30;78.79
48015;BME280;33780;51.034;7.120;2023-03-13T11:12:26;99106.19;;;14.35;79.04
48015;BME280;33780;51.034;7.120;2023-03-13T11:14:59;99101.09;;;14.40;78.68
48015;BME280;33780;51.034;7.120;2023-03-13T11:17:40;99087.06;;;14.44;78.64
48015;BME280;33780;51.034;7.120;2023-03-13T11:20:21;99093.91;;;14.47;78.53
48015;BME280;33780;51.034;7.120;2023-03-13T11:26:15;99079.91;;;14.58;78.04
48015;BME280;33780;51.034;7.120;2023-03-13T11:31:31;99046.38;;;14.61;78.39
48015;BME280;33780;51.034;7.120;2023-03-13T11:34:26;99044.50;;;14.61;78.22
48015;BME280;33780;51.034;7.120;2023-03-13T11:39:38;99034.56;;;14.62;77.71
48015;BME280;33780;51.034;7.120;2023-03-13T11:42:39;99027.13;;;14.64;77.33
48015;BME280;33780;51.034;7.120;2023-03-13T11:49:06;99020.69;;;14.65;76.83
48015;BME280;33780;51.034;7.120;2023-03-13T11:51:44;99031.66;;;14.63;76.63
48015;BME280;33780;51.034;7.120;2023-03-13T11:56:59;98995.84;;;14.63;76.30
48015;BME280;33780;51.034;7.120;2023-03-13T11:59:46;98998.13;;;14.66;76.18
48015;BME280;33780;51.034;7.120;2023-03-13T12:03:10;99004.78;;;14.70;75.91
48015;BME280;33780;51.034;7.120;2023-03-13T12:05:50;98983.69;;;14.80;75.73
48015;BME280;33780;51.034;7.120;2023-03-13T12:08:22;98981.63;;;14.82;75.61
48015;BME280;33780;51.034;7.120;2023-03-13T12:13:28;98970.66;;;14.84;75.76
48015;BME280;33780;51.034;7.120;2023-03-13T12:15:58;98977.50;;;14.86;75.08
48015;BME280;33780;51.034;7.120;2023-03-13T12:18:39;98968.00;;;14.90;74.72
48015;BME280;33780;51.034;7.120;2023-03-13T12:21:16;98975.66;;;14.93;74.54
48015;BME280;33780;51.034;7.120;2023-03-13T12:24:03;98960.13;;;14.95;74.40
48015;BME280;33780;51.034;7.120;2023-03-13T12:26:38;98966.34;;;14.96;73.80
48015;BME280;33780;51.034;7.120;2023-03-13T12:32:28;98974.44;;;15.02;73.38
48015;BME280;33780;51.034;7.120;2023-03-13T12:38:02;98947.13;;;15.12;72.92
48015;BME280;33780;51.034;7.120;2023-03-13T12:41:11;98931.38;;;15.22;72.10
48015;BME280;33780;51.034;7.120;2023-03-13T12:43:36;98940.50;;;15.28;71.06
48015;BME280;33780;51.034;7.120;2023-03-13T12:46:16;98932.63;;;15.33;70.47
48015;BME280;33780;51.034;7.120;2023-03-13T12:58:12;98893.25;;;15.52;69.27
48015;BME280;33780;51.034;7.120;2023-03-13T13:00:43;98908.16;;;15.54;68.63
48015;BME280;33780;51.034;7.120;2023-03-13T13:05:37;98900.91;;;15.61;68.63
48015;BME280;33780;51.034;7.120;2023-03-13T13:08:03;98893.25;;;15.65;68.44
48015;BME280;33780;51.034;7.120;2023-03-13T13:10:32;98891.19;;;15.67;68.31
48015;BME280;33780;51.034;7.120;2023-03-13T13:13:27;98861.72;;;15.72;68.05
48015;BME280;33780;51.034;7.120;2023-03-13T13:16:03;98875.19;;;15.72;68.60
48015;BME280;33780;51.034;7.120;2023-03-13T13:18:31;98868.16;;;15.71;68.50
48015;BME280;33780;51.034;7.120;2023-03-13T13:23:38;98861.50;;;15.74;67.56
48015;BME280;33780;51.034;7.120;2023-03-13T13:28:55;98863.56;;;15.78;67.73
48015;BME280;33780;51.034;7.120;2023-03-13T13:39:49;98858.19;;;15.71;67.97
48015;BME280;33780;51.034;7.120;2023-03-13T13:47:25;98836.81;;;15.70;67.86
48015;BME280;33780;51.034;7.120;2023-03-13T13:49:54;98826.22;;;15.75;67.24
48015;BME280;33780;51.034;7.120;2023-03-13T13:52:37;98833.50;;;15.75;67.95
48015;BME280;33780;51.034;7.120;2023-03-13T13:58:18;98816.88;;;15.84;67.86
48015;BME280;33780;51.034;7.120;2023-03-13T14:00:59;98819.53;;;15.91;67.76
48015;BME280;33780;51.034;7.120;2023-03-13T14:03:30;98830.31;;;15.97;67.51
48015;BME280;33780;51.034;7.120;2023-03-13T14:06:02;98813.28;;;16.04;68.01
48015;BME280;33780;51.034;7.120;2023-03-13T14:08:35;98816.38;;;16.07;67.97
48015;BME280;33780;51.034;7.120;2023-03-13T14:11:24;98808.44;;;16.12;67.63
48015;BME280;33780;51.034;7.120;2023-03-13T14:14:10;98805.31;;;16.15;67.53
48015;BME280;33780;51.034;7.120;2023-03-13T14:16:37;98796.59;;;16.20;67.78
48015;BME280;33780;51.034;7.120;2023-03-13T14:19:03;98783.50;;;16.23;67.84
48015;BME280;33780;51.034;7.120;2023-03-13T14:21:28;98780.38;;;16.26;68.00
48015;BME280;33780;51.034;7.120;2023-03-13T14:23:54;98776.78;;;16.32;67.65
48015;BME280;33780;51.034;7.120;2023-03-13T14:26:25;98785.69;;;16.40;67.86